^^
Saratoga-Weather Station Historical Data
Daily Summary for December 9, 2021 Units:  English    Metric   Both
Daily Weekly Monthly Yearly Custom
  High: Low: Average:
Temperature: 38.5 °F 33.6 °F 36.3 °F
Dew Point: 36.7 °F 32.5 °F 34.7 °F
Humidity: 96% 92% 94%
Wind Speed: 8.9mph 0mph 1.7mph
Wind Gust: 14mph - -
Wind- - West
Pressure: 29.7 in 29.6 in -
Precipitation: 0.24 in    
Historical Graphs
 
 
Tabular Data for December 9, 2021
Time Temperature Dew Point Pressure Wind Wind Speed Wind Gust Humidity Rainfall Rate (Hourly) solar
00:02 34 °F 32.9 °F 29.6 in Calm     96% 0 in 0 W/m2
00:07 34 °F 32.9 °F 29.6 in Calm     96% 0 in 0 W/m2
00:12 34 °F 32.9 °F 29.6 in Calm     96% 0 in 0 W/m2
00:17 34.2 °F 33.1 °F 29.6 in Calm     96% 0 in 0 W/m2
00:22 34 °F 32.9 °F 29.6 in Calm     96% 0 in 0 W/m2
00:27 34 °F 32.9 °F 29.6 in Calm     96% 0 in 0 W/m2
00:32 34 °F 32.9 °F 29.6 in Calm     96% 0 in 0 W/m2
00:37 34.2 °F 33.1 °F 29.6 in Calm   1 mph 96% 0 in 0 W/m2
00:42 34.2 °F 33.1 °F 29.6 in Calm     96% 0 in 0 W/m2
00:47 34.2 °F 33.1 °F 29.6 in Calm   1 mph 96% 0 in 0 W/m2
00:52 34.2 °F 33.1 °F 29.6 in Calm     96% 0 in 0 W/m2
00:57 34 °F 32.9 °F 29.6 in Calm     96% 0 in 0 W/m2
01:02 34 °F 32.9 °F 29.6 in SSW 0.9 mph 2 mph 96% 0 in 0 W/m2
01:07 33.8 °F 32.7 °F 29.6 in Calm   3 mph 96% 0 in 0 W/m2
01:12 34.2 °F 33.1 °F 29.6 in Calm   2 mph 96% 0 in 0 W/m2
01:17 34.2 °F 33.1 °F 29.6 in Calm     96% 0 in 0 W/m2
01:22 34.2 °F 33.1 °F 29.6 in West 2 mph 4 mph 96% 0 in 0 W/m2
01:27 34.3 °F 33.3 °F 29.6 in Calm   2 mph 96% 0 in 0 W/m2
01:32 34.3 °F 33.3 °F 29.6 in Calm   3 mph 96% 0 in 0 W/m2
01:37 34.3 °F 33.3 °F 29.6 in Calm   1 mph 96% 0 in 0 W/m2
01:42 34.3 °F 33.3 °F 29.6 in Calm     96% 0 in 0 W/m2
01:47 34.2 °F 33.1 °F 29.6 in Calm   1 mph 96% 0 in 0 W/m2
01:52 34 °F 32.9 °F 29.6 in Calm     96% 0 in 0 W/m2
01:57 33.8 °F 32.7 °F 29.6 in Calm   3 mph 96% 0 in 0 W/m2
02:02 33.6 °F 32.5 °F 29.6 in WNW 2 mph 2 mph 96% 0 in 0 W/m2
02:07 34 °F 32.9 °F 29.6 in Calm   5 mph 96% 0 in 0 W/m2
02:12 34.2 °F 33.1 °F 29.6 in WSW 0.9 mph 2 mph 96% 0 in 0 W/m2
02:17 34.3 °F 33.3 °F 29.6 in West 0.9 mph 2 mph 96% 0 in 0 W/m2
02:22 34.5 °F 33.4 °F 29.7 in NW 0.9 mph 1 mph 96% 0 in 0 W/m2
02:27 34.3 °F 33.3 °F 29.7 in Calm   1 mph 96% 0 in 0 W/m2
02:32 34.3 °F 33.3 °F 29.7 in Calm   1 mph 96% 0 in 0 W/m2
02:37 34.2 °F 33.1 °F 29.7 in Calm     96% 0 in 0 W/m2
02:42 34.2 °F 33.1 °F 29.7 in Calm     96% 0 in 0 W/m2
02:47 34 °F 32.9 °F 29.7 in NE 0.9 mph 1 mph 96% 0 in 0 W/m2
02:52 34 °F 32.9 °F 29.7 in WNW 0.9 mph 3 mph 96% 0 in 0 W/m2
02:57 34.2 °F 33.1 °F 29.7 in Calm     96% 0 in 0 W/m2
03:02 34.3 °F 33.3 °F 29.7 in WNW 2 mph 5 mph 96% 0 in 0 W/m2
03:07 34.7 °F 33.6 °F 29.7 in Calm   2 mph 96% 0 in 0 W/m2
03:12 34.9 °F 33.8 °F 29.7 in Calm   4 mph 96% 0 in 0 W/m2
03:17 35.1 °F 34 °F 29.7 in SW 0.9 mph 4 mph 96% 0 in 0 W/m2
03:22 35.1 °F 34 °F 29.7 in NW 2 mph 3 mph 96% 0 in 0 W/m2
03:27 35.2 °F 34.2 °F 29.7 in WSW 0.9 mph 1 mph 96% 0 in 0 W/m2
03:32 34.9 °F 33.8 °F 29.7 in WSW 3 mph 3 mph 96% 0 in 0 W/m2
03:37 34.5 °F 33.3 °F 29.7 in Calm   1 mph 95% 0 in 0 W/m2
03:42 34.3 °F 33.3 °F 29.7 in WNW 0.9 mph 4 mph 96% 0 in 0 W/m2
03:47 34.5 °F 33.4 °F 29.7 in Calm   3 mph 96% 0 in 0 W/m2
03:52 34.5 °F 33.4 °F 29.7 in Calm   2 mph 96% 0 in 0 W/m2
03:57 34.5 °F 33.4 °F 29.7 in West 0.9 mph 4 mph 96% 0 in 0 W/m2
04:02 34.9 °F 33.8 °F 29.7 in SW 0.9 mph 2 mph 96% 0 in 0 W/m2
04:07 34.5 °F 33.4 °F 29.7 in Calm   4 mph 96% 0 in 0 W/m2
04:12 34.3 °F 33.3 °F 29.7 in NNW 2 mph 3 mph 96% 0 in 0 W/m2
04:17 34.7 °F 33.6 °F 29.7 in WSW 4.9 mph 9 mph 96% 0 in 0 W/m2
04:22 35.1 °F 34 °F 29.7 in WNW 6 mph 14 mph 96% 0 in 0 W/m2
04:27 35.2 °F 34.2 °F 29.7 in West 2.9 mph 8 mph 96% 0 in 0 W/m2
04:32 35.2 °F 34.2 °F 29.7 in West 2.9 mph 14 mph 96% 0 in 0 W/m2
04:37 35.2 °F 34.2 °F 29.7 in WNW 4.9 mph 7 mph 96% 0 in 0 W/m2
04:42 35.2 °F 34.2 °F 29.7 in West 4 mph 5 mph 96% 0 in 0 W/m2
04:47 35.4 °F 34.3 °F 29.7 in WSW 6.9 mph 10 mph 96% 0 in 0 W/m2
04:52 35.2 °F 34.2 °F 29.7 in West 2.9 mph 7 mph 96% 0 in 0 W/m2
04:57 35.2 °F 34 °F 29.7 in WNW 2 mph 9 mph 95% 0 in 0 W/m2
05:02 35.2 °F 34 °F 29.7 in West 6 mph 11 mph 95% 0 in 0 W/m2
05:07 35.2 °F 34 °F 29.7 in WSW 2.9 mph 9 mph 95% 0 in 0 W/m2
05:12 35.2 °F 34 °F 29.7 in WNW 2 mph 9 mph 95% 0 in 0 W/m2
05:17 35.2 °F 34 °F 29.7 in West 4 mph 11 mph 95% 0 in 0 W/m2
05:22 35.2 °F 34 °F 29.7 in WNW 4 mph 10 mph 95% 0 in 0 W/m2
05:27 35.2 °F 34 °F 29.7 in WNW 4 mph 11 mph 95% 0 in 0 W/m2
05:32 35.2 °F 34 °F 29.7 in NW 4 mph 8 mph 95% 0 in 0 W/m2
05:37 35.2 °F 34 °F 29.7 in WNW 2 mph 9 mph 95% 0 in 0 W/m2
05:42 35.2 °F 34 °F 29.7 in WNW 2.9 mph 3 mph 95% 0 in 0 W/m2
05:47 35.2 °F 34 °F 29.7 in West 0.9 mph 8 mph 95% 0 in 0 W/m2
05:52 35.2 °F 34 °F 29.7 in NW 2 mph 4 mph 95% 0 in 0 W/m2
05:57 35.2 °F 34 °F 29.7 in WNW 2.9 mph 8 mph 95% 0 in 0 W/m2
06:02 35.2 °F 34 °F 29.7 in NW 2 mph 5 mph 95% 0 in 0 W/m2
06:07 35.2 °F 34 °F 29.7 in West 8.1 mph 8 mph 95% 0 in 0 W/m2
06:12 35.2 °F 34 °F 29.7 in WNW 2.9 mph 9 mph 95% 0 in 0 W/m2
06:17 35.2 °F 34 °F 29.7 in WNW 6.9 mph 9 mph 95% 0 in 0 W/m2
06:22 35.4 °F 34.2 °F 29.7 in NW 4.9 mph 7 mph 95% 0 in 0 W/m2
06:27 35.4 °F 34.2 °F 29.7 in NW 8.9 mph 10 mph 95% 0 in 0 W/m2
06:32 35.4 °F 34.2 °F 29.7 in West 2 mph 10 mph 95% 0 in 0 W/m2
06:37 35.6 °F 34.3 °F 29.7 in NNW 2.9 mph 7 mph 95% 0 in 0 W/m2
06:42 35.8 °F 34.2 °F 29.7 in NW 2.9 mph 10 mph 94% 0 in 0 W/m2
06:47 35.8 °F 34.2 °F 29.7 in West 0.9 mph 4 mph 94% 0 in 0 W/m2
06:52 35.8 °F 34.2 °F 29.7 in West 2 mph 4 mph 94% 0 in 0 W/m2
06:57 35.6 °F 34 °F 29.7 in West 2.9 mph 8 mph 94% 0 in 0 W/m2
07:02 35.6 °F 34 °F 29.7 in West 4 mph 11 mph 94% 0 in 0 W/m2
07:07 35.4 °F 33.8 °F 29.7 in WSW 4 mph 13 mph 94% 0 in 0 W/m2
07:12 35.4 °F 33.8 °F 29.7 in West 2.9 mph 4 mph 94% 0 in 0 W/m2
07:17 35.4 °F 33.8 °F 29.7 in WNW 2 mph 13 mph 94% 0 in 0 W/m2
07:22 35.4 °F 33.8 °F 29.7 in WNW 2 mph 5 mph 94% 0 in 0 W/m2
07:27 35.4 °F 33.8 °F 29.7 in WNW 0.9 mph 3 mph 94% 0 in 0 W/m2
07:32 35.4 °F 33.8 °F 29.7 in NW 2.9 mph 3 mph 94% 0 in 0 W/m2
07:38 35.4 °F 34.2 °F 29.7 in NNW 2 mph 3 mph 95% 0 in 0 W/m2
07:43 35.4 °F 34.2 °F 29.7 in Calm   1 mph 95% 0 in 0 W/m2
07:48 35.4 °F 34.2 °F 29.7 in NW 0.9 mph 3 mph 95% 0 in 0 W/m2
07:53 35.4 °F 34.2 °F 29.7 in Calm   3 mph 95% 0 in 0 W/m2
07:58 35.4 °F 34.2 °F 29.7 in Calm   2 mph 95% 0 in 0 W/m2
08:03 35.4 °F 34.2 °F 29.7 in NNW 0.9 mph 2 mph 95% 0 in 0 W/m2
08:08 35.6 °F 34 °F 29.7 in WNW 0.9 mph 3 mph 94% 0 in 0 W/m2
08:13 35.6 °F 34 °F 29.7 in NW 0.9 mph 3 mph 94% 0 in 0 W/m2
08:18 35.6 °F 34 °F 29.7 in West 7 mph 7 mph 94% 0 in 0 W/m2
08:23 35.6 °F 34 °F 29.7 in NW 0.9 mph 4 mph 94% 0 in 0 W/m2
08:28 35.6 °F 34 °F 29.7 in NW 0.9 mph 4 mph 94% 0 in 0 W/m2
08:33 35.6 °F 34 °F 29.7 in WNW 2.9 mph 4 mph 94% 0 in 0 W/m2
08:38 35.8 °F 34.2 °F 29.7 in NW 4 mph 6 mph 94% 0 in 5 W/m2
08:43 35.8 °F 34.2 °F 29.7 in NW 2.9 mph 3 mph 94% 0 in 5 W/m2
08:48 35.8 °F 34.2 °F 29.7 in Calm   3 mph 94% 0 in 9 W/m2
08:53 35.8 °F 34.2 °F 29.7 in WNW 2.9 mph 7 mph 94% 0 in 14 W/m2
08:58 35.8 °F 34.2 °F 29.7 in NNW 2 mph 4 mph 94% 0 in 14 W/m2
09:03 35.8 °F 34.2 °F 29.7 in WNW 2.9 mph 3 mph 94% 0 in 19 W/m2
09:08 35.8 °F 34.2 °F 29.7 in South 2.9 mph 9 mph 94% 0 in 19 W/m2
09:13 35.8 °F 34.2 °F 29.7 in NW 0.9 mph 3 mph 94% 0 in 30 W/m2
09:18 35.8 °F 34.2 °F 29.7 in West 2 mph 5 mph 94% 0 in 21 W/m2
09:23 35.8 °F 34.2 °F 29.7 in NNE 2.9 mph 5 mph 94% 0 in 9 W/m2
09:28 35.8 °F 34.2 °F 29.7 in NW 0.9 mph 3 mph 94% 0 in 16 W/m2
09:33 35.8 °F 34.2 °F 29.7 in WNW 2 mph 2 mph 94% 0 in 23 W/m2
09:38 35.8 °F 34.2 °F 29.7 in WNW 0.9 mph 4 mph 94% 0 in 21 W/m2
09:43 36 °F 34.3 °F 29.7 in WSW 0.9 mph 2 mph 94% 0 in 40 W/m2
09:48 36 °F 34.3 °F 29.7 in WSW 2 mph 2 mph 94% 0 in 37 W/m2
09:53 36 °F 34.3 °F 29.7 in NW 4 mph 6 mph 94% 0 in 35 W/m2
09:58 36.1 °F 34.5 °F 29.7 in SW 0.9 mph 6 mph 94% 0 in 49 W/m2
10:03 36.1 °F 34.5 °F 29.7 in West 6.9 mph 10 mph 94% 0 in 47 W/m2
10:08 36.3 °F 34.7 °F 29.7 in West 4 mph 7 mph 94% 0 in 47 W/m2
10:13 36.3 °F 34.5 °F 29.7 in NW 2.9 mph 10 mph 93% 0 in 49 W/m2
10:18 36.3 °F 34.5 °F 29.7 in NNW 0.9 mph 3 mph 93% 0 in 58 W/m2
10:23 36.5 °F 34.7 °F 29.7 in NE 4.9 mph 6 mph 93% 0 in 65 W/m2
10:28 36.7 °F 34.9 °F 29.7 in NNW 0.9 mph 5 mph 93% 0 in 53 W/m2
10:33 36.7 °F 34.9 °F 29.7 in NW 2.9 mph 7 mph 93% 0 in 58 W/m2
10:38 36.7 °F 34.9 °F 29.7 in Calm   4 mph 93% 0 in 120 W/m2
10:43 36.9 °F 35.1 °F 29.7 in Calm   3 mph 93% 0 in 90 W/m2
10:48 37 °F 35.2 °F 29.7 in NNW 2 mph 4 mph 93% 0 in 83 W/m2
10:53 37 °F 35.2 °F 29.7 in WSW 0.9 mph 3 mph 93% 0 in 72 W/m2
10:58 37.2 °F 35.4 °F 29.7 in Calm   1 mph 93% 0 in 76 W/m2
11:03 37.2 °F 35.1 °F 29.7 in West 2 mph 4 mph 92% 0 in 62 W/m2
11:08 37.4 °F 35.2 °F 29.7 in West 8.1 mph 8 mph 92% 0 in 69 W/m2
11:13 37.2 °F 35.1 °F 29.7 in WNW 0.9 mph 7 mph 92% 0 in 35 W/m2
11:18 37.2 °F 35.1 °F 29.7 in West 0.9 mph 3 mph 92% 0 in 35 W/m2
11:23 37.2 °F 35.1 °F 29.7 in East 2 mph 7 mph 92% 0 in 77 W/m2
11:28 37.4 °F 35.2 °F 29.7 in NW 4 mph 8 mph 92% 0 in 120 W/m2
11:33 37.6 °F 35.4 °F 29.7 in NW 2 mph 2 mph 92% 0 in 81 W/m2
11:38 37.6 °F 35.4 °F 29.7 in NW 2 mph 5 mph 92% 0 in 40 W/m2
11:43 37.6 °F 35.4 °F 29.7 in WNW 0.9 mph 3 mph 92% 0 in 63 W/m2
11:48 37.6 °F 35.4 °F 29.7 in ESE 2.9 mph 5 mph 92% 0.01 in 77 W/m2
11:53 37.8 °F 35.6 °F 29.7 in North 0.9 mph 2 mph 92% 0.01 in 72 W/m2
11:58 37.8 °F 35.6 °F 29.7 in ENE 2.9 mph 5 mph 92% 0.01 in 56 W/m2
12:03 37.6 °F 35.4 °F 29.7 in Calm   2 mph 92% 0.01 in 54 W/m2
12:08 37.8 °F 35.6 °F 29.7 in Calm   5 mph 92% 0.01 in 120 W/m2
12:13 37.8 °F 35.6 °F 29.7 in NE 0.9 mph 4 mph 92% 0.01 in 123 W/m2
12:18 37.8 °F 35.6 °F 29.7 in ENE 0.9 mph 5 mph 92% 0.01 in 90 W/m2
12:23 37.8 °F 35.6 °F 29.7 in ENE 4 mph 4 mph 92% 0.01 in 77 W/m2
12:28 37.8 °F 35.6 °F 29.7 in South 0.9 mph 5 mph 92% 0.02 in 67 W/m2
12:33 37.8 °F 35.6 °F 29.7 in NW 2.9 mph 4 mph 92% 0.02 in 58 W/m2
12:38 37.6 °F 35.4 °F 29.7 in Calm   1 mph 92% 0.02 in 56 W/m2
12:43 37.2 °F 35.1 °F 29.7 in NNW 0.9 mph 4 mph 92% 0.04 in 49 W/m2
12:48 37 °F 34.9 °F 29.7 in SSW 0.9 mph 3 mph 92% 0.03 in 42 W/m2
12:53 37 °F 35.2 °F 29.7 in NW 0.9 mph 1 mph 93% 0.04 in 44 W/m2
12:58 36.9 °F 35.1 °F 29.7 in NW 2 mph 3 mph 93% 0.05 in 60 W/m2
13:03 36.7 °F 34.9 °F 29.7 in WNW 0.9 mph 2 mph 93% 0.05 in 60 W/m2
13:08 36.3 °F 34.5 °F 29.7 in WNW 2 mph 4 mph 93% 0.05 in 79 W/m2
13:13 36.3 °F 34.5 °F 29.7 in WNW 0.9 mph 3 mph 93% 0.06 in 84 W/m2
13:18 36.3 °F 34.5 °F 29.7 in Calm     93% 0.06 in 63 W/m2
13:23 36.3 °F 34.5 °F 29.7 in West 2 mph 4 mph 93% 0.06 in 70 W/m2
13:28 36.3 °F 34.7 °F 29.7 in Calm   2 mph 94% 0.06 in 58 W/m2
13:33 36.3 °F 34.7 °F 29.7 in NW 0.9 mph 2 mph 94% 0.06 in 56 W/m2
13:38 36.1 °F 34.5 °F 29.7 in WNW 2 mph 3 mph 94% 0.06 in 58 W/m2
13:43 36.1 °F 34.5 °F 29.7 in West 0.9 mph 3 mph 94% 0.04 in 53 W/m2
13:48 36.1 °F 34.5 °F 29.7 in WNW 2 mph 3 mph 94% 0.05 in 76 W/m2
13:53 36.1 °F 34.5 °F 29.7 in Calm   1 mph 94% 0.04 in 100 W/m2
13:58 36.1 °F 34.5 °F 29.7 in WSW 2 mph 5 mph 94% 0.04 in 104 W/m2
14:03 36.1 °F 34.5 °F 29.7 in Calm   5 mph 94% 0.04 in 88 W/m2
14:08 36.1 °F 34.5 °F 29.7 in WNW 4 mph 5 mph 94% 0.04 in 65 W/m2
14:13 36.1 °F 34.5 °F 29.7 in WNW 0.9 mph 2 mph 94% 0.03 in 53 W/m2
14:18 36.1 °F 34.5 °F 29.7 in WNW 0.9 mph 3 mph 94% 0.03 in 30 W/m2
14:23 36.1 °F 34.5 °F 29.7 in NW 0.9 mph 2 mph 94% 0.04 in 26 W/m2
14:28 36 °F 34.3 °F 29.7 in Calm   3 mph 94% 0.04 in 33 W/m2
14:33 35.8 °F 34.2 °F 29.7 in Calm   6 mph 94% 0.04 in 42 W/m2
14:38 35.8 °F 34.2 °F 29.7 in Calm   3 mph 94% 0.04 in 47 W/m2
14:43 35.8 °F 34.2 °F 29.7 in NNE 0.9 mph 4 mph 94% 0.04 in 47 W/m2
14:48 35.8 °F 34.2 °F 29.7 in WNW 2.9 mph 4 mph 94% 0.04 in 54 W/m2
14:53 35.8 °F 34.2 °F 29.7 in West 6.9 mph 7 mph 94% 0.04 in 60 W/m2
14:58 35.8 °F 34.2 °F 29.7 in WNW 0.9 mph 3 mph 94% 0.03 in 47 W/m2
15:03 36 °F 34.3 °F 29.7 in NW 0.9 mph 3 mph 94% 0.03 in 40 W/m2
15:09 36 °F 34.7 °F 29.7 in Calm   3 mph 95% 0.04 in 72 W/m2
15:14 36.1 °F 34.9 °F 29.7 in Calm   3 mph 95% 0.04 in 53 W/m2
15:19 36.3 °F 34.7 °F 29.7 in NNW 0.9 mph 2 mph 94% 0.04 in 47 W/m2
15:24 36.3 °F 35.1 °F 29.7 in NW 0.9 mph 3 mph 95% 0.03 in 62 W/m2
15:29 36.5 °F 35.2 °F 29.7 in Calm   2 mph 95% 0.03 in 30 W/m2
15:34 36.7 °F 35.4 °F 29.7 in Calm   1 mph 95% 0.03 in 26 W/m2
15:39 36.9 °F 35.6 °F 29.7 in NW 2 mph 2 mph 95% 0.02 in 25 W/m2
15:44 36.9 °F 35.6 °F 29.7 in Calm   4 mph 95% 0.02 in 18 W/m2
15:49 36.9 °F 35.6 °F 29.7 in West 2.9 mph 3 mph 95% 0.02 in 25 W/m2
16:25 37.2 °F 35.6 °F 29.7 in West 2 mph 5 mph 94% 0.02 in 0 W/m2
16:30 37 °F 35.4 °F 29.7 in Calm   3 mph 94% 0.04 in 0 W/m2
16:35 36.9 °F 35.2 °F 29.7 in NNE 2.9 mph 3 mph 94% 0.06 in 0 W/m2
16:40 36.7 °F 35.1 °F 29.7 in NW 2 mph 2 mph 94% 0.08 in 0 W/m2
16:45 36.5 °F 34.9 °F 29.7 in NE 2 mph 4 mph 94% 0.09 in 0 W/m2
16:50 36.5 °F 34.9 °F 29.7 in NNW 0.9 mph 2 mph 94% 0.09 in 0 W/m2
16:55 36.7 °F 35.1 °F 29.7 in Calm   2 mph 94% 0.09 in 0 W/m2
17:00 36.7 °F 35.4 °F 29.7 in NW 0.9 mph 2 mph 95% 0.09 in 0 W/m2
17:05 36.9 °F 35.6 °F 29.7 in WSW 2 mph 5 mph 95% 0.09 in 0 W/m2
17:10 36.9 °F 35.2 °F 29.7 in NW 0.9 mph 3 mph 94% 0.09 in 0 W/m2
17:15 36.9 °F 35.2 °F 29.7 in WNW 2.9 mph 7 mph 94% 0.09 in 0 W/m2
17:20 37 °F 35.4 °F 29.7 in Calm   1 mph 94% 0.09 in 0 W/m2
17:25 37 °F 35.8 °F 29.7 in Calm   7 mph 95% 0.08 in 0 W/m2
17:30 37 °F 35.8 °F 29.7 in Calm   2 mph 95% 0.06 in 0 W/m2
17:35 37 °F 35.8 °F 29.7 in WSW 2 mph 5 mph 95% 0.03 in 0 W/m2
17:40 37 °F 35.8 °F 29.7 in Calm   1 mph 95% 0.02 in 0 W/m2
17:45 37.2 °F 36 °F 29.7 in NW 0.9 mph 7 mph 95% 0.02 in 0 W/m2
17:50 37.2 °F 35.6 °F 29.7 in WNW 0.9 mph 4 mph 94% 0.02 in 0 W/m2
17:56 37.4 °F 35.8 °F 29.7 in NW 2.9 mph 6 mph 94% 0.02 in 0 W/m2
18:01 37.6 °F 36 °F 29.7 in Calm   2 mph 94% 0.02 in 0 W/m2
18:06 37.8 °F 36.5 °F 29.7 in Calm   8 mph 95% 0.02 in 0 W/m2
18:11 37.8 °F 36.1 °F 29.7 in West 2 mph 9 mph 94% 0.02 in 0 W/m2
18:16 37.8 °F 36.1 °F 29.7 in NE 2.9 mph 3 mph 94% 0.02 in 0 W/m2
18:26 37.9 °F 36.3 °F 29.7 in Calm   3 mph 94% 0.02 in 0 W/m2
18:31 37.9 °F 36.3 °F 29.7 in SE 0.9 mph 4 mph 94% 0.01 in 0 W/m2
18:36 37.9 °F 36.3 °F 29.7 in WNW 2 mph 7 mph 94% 0.01 in 0 W/m2
18:41 37.9 °F 36.3 °F 29.7 in WSW 2 mph 4 mph 94% 0.01 in 0 W/m2
18:46 37.9 °F 36.3 °F 29.7 in Calm     94% 0 in 0 W/m2
18:51 37.8 °F 36.1 °F 29.7 in WNW 2.9 mph 4 mph 94% 0 in 0 W/m2
18:56 37.9 °F 36.3 °F 29.7 in West 2 mph 4 mph 94% 0 in 0 W/m2
19:01 37.9 °F 36.3 °F 29.7 in NW 2 mph 2 mph 94% 0 in 0 W/m2
19:06 37.9 °F 36.3 °F 29.7 in West 2.9 mph 5 mph 94% 0 in 0 W/m2
19:11 37.9 °F 36.3 °F 29.7 in NW 0.9 mph 3 mph 94% 0 in 0 W/m2
19:16 37.9 °F 36.3 °F 29.7 in Calm   2 mph 94% 0 in 0 W/m2
19:21 37.9 °F 36.3 °F 29.7 in West 2 mph 4 mph 94% 0 in 0 W/m2
19:26 37.9 °F 36.3 °F 29.7 in NW 2 mph 2 mph 94% 0 in 0 W/m2
19:31 38.1 °F 36.5 °F 29.7 in WNW 4 mph 4 mph 94% 0 in 0 W/m2
19:36 38.1 °F 36.5 °F 29.7 in NNW 2.9 mph 5 mph 94% 0 in 0 W/m2
19:41 38.1 °F 36.5 °F 29.7 in West 2 mph 3 mph 94% 0 in 0 W/m2
19:46 38.1 °F 36.5 °F 29.7 in NNW 0.9 mph 5 mph 94% 0 in 0 W/m2
19:51 38.1 °F 36.5 °F 29.7 in WNW 2.9 mph 5 mph 94% 0 in 0 W/m2
19:56 38.3 °F 36.5 °F 29.7 in WNW 2.9 mph 4 mph 93% 0 in 0 W/m2
20:01 38.3 °F 36.5 °F 29.7 in NW 2 mph 7 mph 93% 0 in 0 W/m2
20:06 38.5 °F 36.7 °F 29.7 in Calm   7 mph 93% 0 in 0 W/m2
20:11 38.5 °F 36.7 °F 29.7 in WNW 2.9 mph 7 mph 93% 0 in 0 W/m2
20:16 38.5 °F 36.7 °F 29.7 in WNW 2.9 mph 4 mph 93% 0 in 0 W/m2
20:21 38.5 °F 36.7 °F 29.7 in WNW 2 mph 5 mph 93% 0 in 0 W/m2
20:38 38.3 °F 36.5 °F 29.7 in NNW 0.9 mph 4 mph 93% 0 in 0 W/m2
20:44 38.3 °F 36.5 °F 29.7 in NW 0.9 mph 6 mph 93% 0 in 0 W/m2
20:49 38.3 °F 36.5 °F 29.7 in WNW 4 mph 4 mph 93% 0 in 0 W/m2
20:54 38.3 °F 36.5 °F 29.7 in NNW 4.9 mph 5 mph 93% 0 in 0 W/m2
20:59 38.5 °F 36.7 °F 29.7 in NW 2 mph 8 mph 93% 0 in 0 W/m2
21:04 38.5 °F 36.7 °F 29.7 in WSW 2.9 mph 5 mph 93% 0 in 0 W/m2
21:09 38.5 °F 36.7 °F 29.7 in WNW 0.9 mph 6 mph 93% 0 in 0 W/m2
21:14 38.3 °F 36.1 °F 29.7 in West 2.9 mph 6 mph 92% 0 in 0 W/m2
21:19 38.5 °F 36.3 °F 29.7 in West 2 mph 5 mph 92% 0 in 0 W/m2
21:24 38.3 °F 36.1 °F 29.7 in West 2.9 mph 3 mph 92% 0 in 0 W/m2
21:29 38.3 °F 36.1 °F 29.7 in NW 0.9 mph 6 mph 92% 0 in 0 W/m2
21:34 38.3 °F 36.1 °F 29.7 in West 0.9 mph 4 mph 92% 0 in 0 W/m2
21:39 38.3 °F 36.1 °F 29.7 in West 6 mph 8 mph 92% 0 in 0 W/m2
21:44 38.1 °F 36 °F 29.7 in NW 4 mph 7 mph 92% 0 in 0 W/m2
21:49 38.1 °F 36 °F 29.7 in West 0.9 mph 4 mph 92% 0 in 0 W/m2
21:54 38.1 °F 36 °F 29.7 in West 0.9 mph 3 mph 92% 0 in 0 W/m2
21:59 38.1 °F 36 °F 29.7 in WNW 2.9 mph 4 mph 92% 0 in 0 W/m2
22:04 37.9 °F 35.8 °F 29.7 in West 2.9 mph 6 mph 92% 0 in 0 W/m2
22:09 37.9 °F 35.8 °F 29.7 in NW 4 mph 4 mph 92% 0 in 0 W/m2
22:14 37.8 °F 35.6 °F 29.7 in NNW 2.9 mph 5 mph 92% 0 in 0 W/m2
22:19 37.8 °F 35.6 °F 29.7 in NW 0.9 mph 2 mph 92% 0 in 0 W/m2
22:24 37.8 °F 35.6 °F 29.7 in NW 2 mph 7 mph 92% 0 in 0 W/m2
22:29 37.8 °F 35.6 °F 29.7 in NW 0.9 mph 4 mph 92% 0 in 0 W/m2
22:34 37.8 °F 35.6 °F 29.7 in Calm   1 mph 92% 0 in 0 W/m2
22:39 37.6 °F 35.4 °F 29.7 in West 0.9 mph 2 mph 92% 0 in 0 W/m2
22:44 37.6 °F 35.4 °F 29.7 in Calm   2 mph 92% 0 in 0 W/m2
22:49 37.4 °F 35.2 °F 29.6 in ENE 0.9 mph 3 mph 92% 0 in 0 W/m2
22:54 37.2 °F 35.1 °F 29.6 in ENE 2 mph 3 mph 92% 0 in 0 W/m2
22:59 37.2 °F 35.1 °F 29.6 in Calm   4 mph 92% 0 in 0 W/m2
23:04 37 °F 34.9 °F 29.6 in Calm   3 mph 92% 0 in 0 W/m2
23:09 37 °F 35.2 °F 29.6 in East 0.9 mph 5 mph 93% 0 in 0 W/m2
23:14 37 °F 35.2 °F 29.6 in ENE 2 mph 4 mph 93% 0 in 0 W/m2
23:19 36.9 °F 35.1 °F 29.6 in East 0.9 mph 3 mph 93% 0 in 0 W/m2
23:24 36.9 °F 35.1 °F 29.6 in NE 2 mph 2 mph 93% 0 in 0 W/m2
23:29 36.7 °F 34.9 °F 29.6 in ENE 2 mph 4 mph 93% 0 in 0 W/m2
23:34 36.5 °F 34.7 °F 29.6 in East 2.9 mph 3 mph 93% 0 in 0 W/m2
23:39 36.3 °F 34.5 °F 29.6 in Calm   3 mph 93% 0 in 0 W/m2
23:44 36.3 °F 34.5 °F 29.6 in Calm   3 mph 93% 0 in 0 W/m2
23:49 36.1 °F 34.3 °F 29.6 in Calm   3 mph 93% 0 in 0 W/m2
23:54 36.1 °F 34.3 °F 29.6 in ENE 2.9 mph 3 mph 93% 0 in 0 W/m2
23:59 36 °F 34.2 °F 29.6 in ENE 2 mph 2 mph 93% 0 in 0 W/m2
Juneau County Weather
Compliments of Weather Underground - 4 mb